Armstrong, PA (17702)

12:22 PM EDT on July 30, 2016 (GMT -0400)
Vallamont | | Change Station

Elev 568 ft 41.25 °N, 77.01 °W | Updated 42 seconds ago

Scattered Clouds
Scattered Clouds
81.3 °F
Feels Like 84 °F
N
3.2
Wind Variable Wind from SSE

Today
High -- | Low -- °F
--% Chance of Precip.
Yesterday
High -- | Low -- °F
Precip. -- in
Pressure 29.97 in
Visibility 10.0 miles
Clouds Few 7500 ft
Scattered Clouds 10000 ft
Heat Index 84 °F
Dew Point 68 °F
Humidity 63%
Rainfall 0.00 in
Snow Depth Not available.
6:01 AM 8:26 PM
Waning Crescent, 12% visible
METAR KIPT 301554Z 09005KT 10SM FEW075 SCT100 27/18 A2998 RMK AO2 RAB01E26 SLP147 P0000 T02670183
Pressure 29.97 in
Visibility 10.0 miles
Clouds Few 7500 ft
Scattered Clouds 10000 ft
Heat Index 84 °F
Dew Point 68 °F
Humidity 63%
Rainfall 0.00 in
Snow Depth Not available.
6:01 AM 8:26 PM
Waning Crescent, 12% visible
METAR KIPT 301554Z 09005KT 10SM FEW075 SCT100 27/18 A2998 RMK AO2 RAB01E26 SLP147 P0000 T02670183

10-Day Weather Forecast

Almanac

Astronomy

Jul. 30, 2016 Rise Set
Actual Time
Civil Twilight
Nautical Twilight
Astronomical Twilight
Moon
Length of Visible Light
Length of Day
Tomorrow will be .
, % of the Moon is Illuminated

Today's Extremes

State Highs State Lows

Community

WunderPhotos

Upload Photos

1,928,592 photos uploaded!

WunderBlog® & News

Nearby

Air Quality

  Air Quality AQ Index Pollutant
Not available.

Snow Depth

Station Depth Elevation

Earthquake Activity

City Distance Mag. Time & Date
Minimum magnitude displayed is 2.5.

Coastal Water Temperatures

Place Temperature

Stations

Nearby Weather Stations

Station Location Temp. Windchill Dew Point Humidity Wind Precip. Elev Updated Type
                   

Watches & Warnings

There are currently no watches in effect.